Algocanada — CFN5193 — position and weather

sailwx.info

Track history (hours):
 
Tides and Currents Weather Stations Pressure Air Temp Water Temp Dewpoint Dewpoint Depression Visibility Wind Speed Wind Dir Waves Ship Positions

Algocanada

Last reported at 2018-Feb-18 02:53 UTC. Time now 2018-Feb-23 22:25 UTC.
Position N 45°23' W 083°21'.

Length 130 m; draft 4.9 m.

Type: Ship. MMSI: 316013215.

Date/timePositionNaut miles runAvg speedWind from/ knotsBaromVisibWave heightAir tempDewpointWater temp
2018-Feb-18 02:53N 45°23' W 083°21'615.0
2018-Feb-18 02:30N 45°28' W 083°26'714.9
2018-Feb-18 02:00N 45°34' W 083°31'814.8
2018-Feb-18 01:30N 45°40' W 083°38'715.0
2018-Feb-18 01:00N 45°46' W 083°43'4 0.1
2018-Feb-16 03:20N 45°43' W 083°40'411.7
2018-Feb-16 03:01N 45°40' W 083°37'612.2
2018-Feb-16 02:30N 45°35' W 083°32'612.5
2018-Feb-16 02:00N 45°30' W 083°27'  
Track history (hours):
 
Tides and Currents Weather Stations Pressure Air Temp Water Temp Dewpoint Dewpoint Depression Visibility Wind Speed Wind Dir Waves Ship Positions

Algocanada

Last reported at 2018-Feb-18 02:53 UTC. Time now 2018-Feb-23 22:25 UTC.
Position N 45°23' W 083°21'.

Length 130 m; draft 4.9 m.

Type: Ship. MMSI: 316013215.

Date/timePositionNaut miles runAvg speedWind from/ knotsBaromVisibWave heightAir tempDewpointWater temp
2018-Feb-18 02:53N 45°23' W 083°21'615.0
2018-Feb-18 02:30N 45°28' W 083°26'714.9
2018-Feb-18 02:00N 45°34' W 083°31'814.8
2018-Feb-18 01:30N 45°40' W 083°38'715.0
2018-Feb-18 01:00N 45°46' W 083°43'4 0.1
2018-Feb-16 03:20N 45°43' W 083°40'411.7
2018-Feb-16 03:01N 45°40' W 083°37'612.2
2018-Feb-16 02:30N 45°35' W 083°32'612.5
2018-Feb-16 02:00N 45°30' W 083°27'  

Dump ship's entire track history